Novgorod, Russia
Current Conditions -  °F | °C
As of 8:30 AM on Wednesday 26 Nov 2014 (Local Time) from ULLI Reporting Station
Overcast Overcast  
Wind Chill: 21°   Ceiling: 700
Heat Index: 28°   Visibility: 6mi
Dew Point: 27°   Wind: 7mph
Humidity: 93%   Direction: 200°SSW
Pressure: 30.36"   Gusts: NA
Location:  58.55°N, 31.28°E
Report Text: ULLI 260530Z 20003MPS 9999 OVC007 M02/M03 Q1028 88520245 NOSIG
Loading
Personal Weather Stations






























Interactive Weather Map New forecast layout! Learn more

10-Day Weather Forecast

Advertisements
Track Severe Weather on mobile